Time;durP1;ratioP1;P1;durP2;ratioP2;P2;SDS_P1;SDS_P2;PMS_P1;PMS_P2;Temp;Humidity;BMP_temperature;BMP_pressure;BME280_temperature;BME280_humidity;BME280_pressure;Samples;Min_cycle;Max_cycle;Signal;HPM_P1;HPM_P2
2021/06/23 00:00:27;;;;;;;3.60;3.40;;;;;25.60;100767.00;;;;2064045;28;20214;-57
2021/06/23 00:01:28;;;;;;;3.47;3.27;;;;;25.60;100769.00;;;;2063372;28;20218;-62
2021/06/23 00:02:28;;;;;;;3.43;3.23;;;;;25.60;100767.00;;;;2063681;28;20350;-58
2021/06/23 00:03:29;;;;;;;3.53;3.30;;;;;25.60;100766.00;;;;2063690;28;20219;-61
2021/06/23 00:04:29;;;;;;;3.40;3.20;;;;;25.60;100768.00;;;;2070660;28;20817;-58
2021/06/23 00:05:29;;;;;;;3.50;3.30;;;;;25.60;100770.00;;;;2074800;28;20218;-57
2021/06/23 00:06:30;;;;;;;2.90;2.70;;;;;25.60;100771.00;;;;2072077;28;20218;-59
2021/06/23 00:07:30;;;;;;;3.40;3.20;;;;;25.60;100777.00;;;;2066536;28;20230;-60
2021/06/23 00:08:30;;;;;;;3.30;3.10;;;;;25.60;100772.00;;;;2063225;28;20206;-59
2021/06/23 00:09:31;;;;;;;3.10;2.90;;;;;25.60;100784.00;;;;2070856;28;20305;-57
2021/06/23 00:10:31;;;;;;;3.57;3.33;;;;;25.60;100782.00;;;;2068169;28;20230;-58
2021/06/23 00:11:37;;;;;;;3.23;3.03;;;;;25.60;100784.00;;;;2071257;28;20214;-57
2021/06/23 00:12:38;;;;;;;3.90;3.60;;;;;25.60;100770.00;;;;2069524;28;20218;-57
2021/06/23 00:13:38;;;;;;;3.23;3.03;;;;;25.60;100773.00;;;;2063752;28;20580;-59
2021/06/23 00:14:38;;;;;;;3.30;3.00;;;;;25.60;100772.00;;;;2063122;28;20286;-58
2021/06/23 00:15:39;;;;;;;3.10;2.90;;;;;25.60;100768.00;;;;2070591;28;20643;-57
2021/06/23 00:16:42;;;;;;;3.73;3.43;;;;;25.60;100766.00;;;;2071850;28;20220;-57
2021/06/23 00:17:43;;;;;;;3.45;3.25;;;;;25.60;100775.00;;;;2071932;28;20292;-57
2021/06/23 00:18:43;;;;;;;3.63;3.43;;;;;25.50;100772.00;;;;2071031;28;20628;-57
2021/06/23 00:19:43;;;;;;;3.40;3.20;;;;;25.60;100778.00;;;;2072630;28;20218;-57
2021/06/23 00:20:44;;;;;;;3.30;3.10;;;;;25.60;100779.00;;;;2071611;28;20284;-56
2021/06/23 00:21:44;;;;;;;3.80;3.50;;;;;25.60;100778.00;;;;2070979;28;20210;-60
2021/06/23 00:22:44;;;;;;;3.50;3.30;;;;;25.60;100789.00;;;;2063847;28;20211;-61
2021/06/23 00:23:45;;;;;;;3.60;3.40;;;;;25.60;100775.00;;;;2063719;28;20223;-57
2021/06/23 00:24:45;;;;;;;3.43;3.23;;;;;25.60;100791.00;;;;2069095;28;20893;-57
2021/06/23 00:25:45;;;;;;;3.67;3.47;;;;;25.60;100785.00;;;;2067509;28;20809;-57
2021/06/23 00:26:46;;;;;;;3.33;3.13;;;;;25.50;100789.00;;;;2071176;28;20214;-56
2021/06/23 00:27:46;;;;;;;3.33;3.10;;;;;25.60;100785.00;;;;2064454;28;20249;-57
2021/06/23 00:28:46;;;;;;;3.40;3.10;;;;;25.60;100798.00;;;;2066710;28;20219;-60
2021/06/23 00:29:47;;;;;;;3.30;3.10;;;;;25.60;100785.00;;;;2063359;28;20215;-59
2021/06/23 00:30:47;;;;;;;3.77;3.47;;;;;25.60;100789.00;;;;2063192;28;20226;-57
2021/06/23 00:31:47;;;;;;;3.80;3.50;;;;;25.60;100783.00;;;;2061980;28;20246;-57
2021/06/23 00:32:48;;;;;;;2.97;2.77;;;;;25.60;100782.00;;;;2063769;28;20219;-57
2021/06/23 00:33:48;;;;;;;3.20;3.00;;;;;25.60;100787.00;;;;2071949;28;20720;-59
2021/06/23 00:34:49;;;;;;;3.37;3.17;;;;;25.60;100787.00;;;;2067872;28;20234;-57
2021/06/23 00:35:49;;;;;;;3.33;3.13;;;;;25.60;100790.00;;;;2067633;28;20215;-57
2021/06/23 00:36:49;;;;;;;4.00;3.67;;;;;25.60;100787.00;;;;2066673;28;20249;-58
2021/06/23 00:37:50;;;;;;;3.60;3.30;;;;;25.60;100787.00;;;;2067478;28;20770;-57
2021/06/23 00:38:51;;;;;;;3.67;3.43;;;;;25.50;100796.00;;;;2070008;28;20234;-57
2021/06/23 00:39:51;;;;;;;3.77;3.47;;;;;25.60;100796.00;;;;2064656;28;20532;-58
2021/06/23 00:40:51;;;;;;;3.23;3.03;;;;;25.60;100799.00;;;;2063304;28;20258;-57
2021/06/23 00:41:52;;;;;;;3.57;3.37;;;;;25.50;100792.00;;;;2062712;28;20237;-57
2021/06/23 00:42:52;;;;;;;3.13;2.83;;;;;25.60;100794.00;;;;2063442;28;20219;-57
2021/06/23 00:43:53;;;;;;;3.17;2.97;;;;;25.50;100805.00;;;;2066720;28;20221;-57
2021/06/23 00:44:53;;;;;;;4.03;3.73;;;;;25.50;100798.00;;;;2062957;28;20222;-57
2021/06/23 00:45:53;;;;;;;2.97;2.77;;;;;25.50;100805.00;;;;2062813;28;20676;-57
2021/06/23 00:46:54;;;;;;;3.73;3.53;;;;;25.50;100804.00;;;;2078481;28;20213;-57
2021/06/23 00:47:54;;;;;;;3.30;3.10;;;;;25.50;100801.00;;;;2063545;28;20608;-57
2021/06/23 00:48:56;;;;;;;3.83;3.53;;;;;25.50;100806.00;;;;2079256;28;20609;-57
2021/06/23 00:49:58;;;;;;;3.40;3.20;;;;;25.50;100806.00;;;;2079106;28;20257;-58
2021/06/23 00:50:59;;;;;;;3.00;2.80;;;;;25.50;100804.00;;;;2072534;28;20549;-63
2021/06/23 00:52:00;;;;;;;3.17;2.97;;;;;25.50;100810.00;;;;2070967;28;21005;-59
2021/06/23 00:53:00;;;;;;;3.50;3.30;;;;;25.50;100806.00;;;;2067278;28;20261;-57
2021/06/23 00:54:01;;;;;;;3.20;3.00;;;;;25.50;100811.00;;;;2061607;28;20226;-63
2021/06/23 00:55:01;;;;;;;3.30;3.10;;;;;25.50;100811.00;;;;2060081;28;20222;-62
2021/06/23 00:56:02;;;;;;;3.27;3.07;;;;;25.50;100804.00;;;;2066536;28;20214;-60
2021/06/23 00:57:06;;;;;;;2.97;2.77;;;;;25.50;100812.00;;;;2058180;28;20242;-57
2021/06/23 00:58:06;;;;;;;4.00;3.70;;;;;25.50;100811.00;;;;2055892;28;20216;-57
2021/06/23 00:59:07;;;;;;;3.90;3.60;;;;;25.50;100824.00;;;;2063711;28;20458;-56
2021/06/23 01:00:08;;;;;;;3.33;3.13;;;;;25.60;100809.00;;;;2065784;28;20206;-58
2021/06/23 01:01:08;;;;;;;3.50;3.30;;;;;25.50;100812.00;;;;2070350;28;20449;-56
2021/06/23 01:02:09;;;;;;;3.60;3.30;;;;;25.50;100816.00;;;;2063375;28;20313;-56
2021/06/23 01:03:10;;;;;;;3.17;2.97;;;;;25.50;100820.00;;;;2066589;28;20760;-60
2021/06/23 01:04:10;;;;;;;3.73;3.53;;;;;25.50;100813.00;;;;2058996;28;20358;-58
2021/06/23 01:05:11;;;;;;;3.90;3.63;;;;;25.50;100811.00;;;;2066185;28;20297;-57
2021/06/23 01:06:11;;;;;;;3.10;2.90;;;;;25.50;100814.00;;;;2060117;28;20762;-56
2021/06/23 01:07:13;;;;;;;3.73;3.47;;;;;25.50;100816.00;;;;2046603;28;20236;-63
2021/06/23 01:08:13;;;;;;;3.53;3.33;;;;;25.50;100808.00;;;;2062152;28;20262;-57
2021/06/23 01:09:13;;;;;;;3.10;2.90;;;;;25.50;100808.00;;;;2061729;28;20845;-60
2021/06/23 01:10:14;;;;;;;3.37;3.17;;;;;25.50;100810.00;;;;2070710;28;20221;-63
2021/06/23 01:11:14;;;;;;;3.33;3.13;;;;;25.50;100805.00;;;;2065224;28;20685;-58
2021/06/23 01:12:27;;;;;;;3.30;3.10;;;;;25.50;100806.00;;;;2063295;28;20206;-57
2021/06/23 01:13:33;;;;;;;3.70;3.50;;;;;25.50;100804.00;;;;2063460;28;20203;-57
2021/06/23 01:14:34;;;;;;;3.47;3.27;;;;;25.50;100804.00;;;;2063577;28;20442;-62
2021/06/23 01:15:34;;;;;;;3.43;3.20;;;;;25.50;100801.00;;;;2068841;28;20969;-60
2021/06/23 01:16:38;;;;;;;3.73;3.43;;;;;25.50;100799.00;;;;2066497;28;20761;-56
2021/06/23 01:17:38;;;;;;;3.60;3.30;;;;;25.50;100800.00;;;;2070595;28;20297;-60
2021/06/23 01:18:39;;;;;;;3.70;3.40;;;;;25.50;100801.00;;;;2071261;28;20648;-58
2021/06/23 01:19:43;;;;;;;3.80;3.50;;;;;25.50;100801.00;;;;2071388;28;20618;-57
2021/06/23 01:20:44;;;;;;;3.55;3.30;;;;;25.50;100801.00;;;;2071345;28;20461;-57
2021/06/23 01:21:44;;;;;;;3.60;3.40;;;;;25.50;100809.00;;;;2063939;28;20586;-57
2021/06/23 01:22:46;;;;;;;3.33;3.13;;;;;25.50;100806.00;;;;2063346;28;20218;-56
2021/06/23 01:23:46;;;;;;;3.47;3.28;;;;;25.50;100811.00;;;;2067197;28;20305;-61
2021/06/23 01:24:46;;;;;;;3.30;3.10;;;;;25.50;100803.00;;;;2067699;28;20215;-58
2021/06/23 01:25:48;;;;;;;3.70;3.50;;;;;25.50;100808.00;;;;2071521;28;20206;-57
2021/06/23 01:26:48;;;;;;;3.30;3.10;;;;;25.50;100799.00;;;;2071305;28;20458;-58
2021/06/23 01:27:49;;;;;;;3.50;3.20;;;;;25.50;100801.00;;;;2068324;28;20680;-57
2021/06/23 01:28:49;;;;;;;4.00;3.70;;;;;25.50;100800.00;;;;2062950;28;20564;-63
2021/06/23 01:29:50;;;;;;;3.60;3.30;;;;;25.50;100799.00;;;;2063760;28;20237;-58
2021/06/23 01:30:50;;;;;;;3.80;3.50;;;;;25.50;100790.00;;;;2073210;28;20583;-63
2021/06/23 01:31:50;;;;;;;3.23;3.03;;;;;25.50;100797.00;;;;2065924;28;20603;-58
2021/06/23 01:32:51;;;;;;;3.50;3.30;;;;;25.50;100797.00;;;;2066363;28;20214;-58
2021/06/23 01:33:51;;;;;;;3.57;3.30;;;;;25.50;100794.00;;;;2069727;28;20222;-58
2021/06/23 01:34:51;;;;;;;3.40;3.20;;;;;25.50;100798.00;;;;2066586;28;20226;-57
2021/06/23 01:35:52;;;;;;;3.30;3.10;;;;;25.50;100801.00;;;;2070479;28;20206;-57
2021/06/23 01:36:53;;;;;;;3.57;3.27;;;;;25.50;100791.00;;;;2070764;28;20707;-57
2021/06/23 01:37:53;;;;;;;3.60;3.30;;;;;25.50;100793.00;;;;2067978;28;20560;-57
2021/06/23 01:38:53;;;;;;;3.33;3.13;;;;;25.50;100795.00;;;;2065214;28;20602;-57
2021/06/23 01:39:54;;;;;;;3.40;3.17;;;;;25.50;100793.00;;;;2067694;28;20297;-58
2021/06/23 01:40:54;;;;;;;3.70;3.40;;;;;25.50;100797.00;;;;2062696;28;20214;-58
2021/06/23 01:41:54;;;;;;;3.23;3.03;;;;;25.50;100804.00;;;;2069131;28;20333;-58
2021/06/23 01:42:55;;;;;;;3.20;3.00;;;;;25.50;100800.00;;;;2062839;28;20207;-58
2021/06/23 01:43:55;;;;;;;3.40;3.20;;;;;25.50;100804.00;;;;2064015;28;20321;-58
2021/06/23 01:44:58;;;;;;;3.70;3.40;;;;;25.50;100801.00;;;;2070929;28;20218;-58
2021/06/23 01:45:59;;;;;;;3.40;3.20;;;;;25.50;100809.00;;;;2070576;28;20206;-58
2021/06/23 01:47:01;;;;;;;3.47;3.27;;;;;25.50;100803.00;;;;2068064;28;20274;-64
2021/06/23 01:48:01;;;;;;;3.75;3.50;;;;;25.50;100806.00;;;;2059494;28;20727;-58
2021/06/23 01:49:02;;;;;;;3.20;3.00;;;;;25.50;100799.00;;;;2065761;28;20219;-59
2021/06/23 01:50:03;;;;;;;3.20;3.00;;;;;25.50;100799.00;;;;2062200;28;20918;-57
2021/06/23 01:51:04;;;;;;;3.15;2.95;;;;;25.50;100804.00;;;;2068076;28;20210;-57
2021/06/23 01:52:05;;;;;;;3.27;3.07;;;;;25.50;100808.00;;;;2067693;28;20218;-57
2021/06/23 01:53:05;;;;;;;3.33;3.03;;;;;25.50;100809.00;;;;2062729;28;20214;-60
2021/06/23 01:54:05;;;;;;;3.00;2.80;;;;;25.50;100807.00;;;;2066291;28;20297;-57
2021/06/23 01:55:06;;;;;;;3.23;3.03;;;;;25.50;100809.00;;;;2067012;28;20261;-59
2021/06/23 01:56:07;;;;;;;3.28;3.08;;;;;25.50;100761.00;;;;2070781;28;20643;-56
2021/06/23 01:57:11;;;;;;;3.10;2.90;;;;;25.50;100804.00;;;;2070591;28;20214;-60
2021/06/23 01:58:12;;;;;;;3.70;3.40;;;;;25.50;100803.00;;;;2063996;28;20211;-63
2021/06/23 01:59:12;;;;;;;3.20;3.00;;;;;25.50;100807.00;;;;2061978;28;20768;-56
2021/06/23 02:00:13;;;;;;;3.23;3.03;;;;;25.50;100817.00;;;;2067086;28;20449;-57
2021/06/23 02:01:26;;;;;;;3.63;3.33;;;;;25.50;100811.00;;;;2063305;28;20221;-62
2021/06/23 02:02:30;;;;;;;3.33;3.13;;;;;25.50;100815.00;;;;2069897;28;20225;-56
2021/06/23 02:03:52;;;;;;;3.35;3.10;;;;;25.50;100813.00;;;;2069770;28;20703;-61
2021/06/23 02:04:53;;;;;;;2.97;2.78;;;;;25.50;100815.00;;;;2062206;28;20637;-56
2021/06/23 02:06:04;;;;;;;3.10;2.90;;;;;25.50;100809.00;;;;2066216;28;20214;-60
2021/06/23 02:07:39;;;;;;;3.20;3.00;;;;;25.50;100810.00;;;;2068396;28;20454;-57
2021/06/23 02:09:04;;;;;;;3.33;3.13;;;;;25.50;100810.00;;;;2058238;28;20695;-59
2021/06/23 02:10:30;;;;;;;3.20;3.00;;;;;25.50;100812.00;;;;2065107;28;20265;-57
2021/06/23 02:11:41;;;;;;;3.38;3.15;;;;;25.50;100811.00;;;;2058754;28;20214;-60
2021/06/23 02:12:53;;;;;;;2.97;2.78;;;;;25.50;100819.00;;;;2070400;28;20292;-61
2021/06/23 02:14:21;;;;;;;3.30;3.10;;;;;25.50;100818.00;;;;2067880;28;20210;-59
2021/06/23 02:15:22;;;;;;;3.45;3.25;;;;;25.50;100810.00;;;;2061681;28;20219;-62
2021/06/23 02:16:23;;;;;;;3.40;3.20;;;;;25.50;100815.00;;;;2062239;28;20728;-58
2021/06/23 02:17:24;;;;;;;3.15;2.95;;;;;25.50;100816.00;;;;2062275;28;20214;-56
2021/06/23 02:18:28;;;;;;;3.80;3.50;;;;;25.50;100825.00;;;;2064199;28;20302;-58
2021/06/23 02:19:29;;;;;;;3.65;3.35;;;;;25.50;100819.00;;;;2067862;28;20540;-62
2021/06/23 02:20:30;;;;;;;3.55;3.25;;;;;25.30;100819.00;;;;2062392;28;21064;-60
2021/06/23 02:21:31;;;;;;;3.27;3.07;;;;;25.50;100812.00;;;;2065347;28;20221;-63
2021/06/23 02:22:32;;;;;;;3.23;3.03;;;;;25.50;100819.00;;;;2062365;28;20302;-63
2021/06/23 02:23:36;;;;;;;3.17;2.97;;;;;25.50;100827.00;;;;2069683;28;20233;-57
2021/06/23 02:24:36;;;;;;;3.15;2.95;;;;;25.50;100822.00;;;;2066272;28;20305;-59
2021/06/23 02:25:37;;;;;;;3.53;3.33;;;;;25.50;100819.00;;;;2067024;28;20219;-58
2021/06/23 02:26:37;;;;;;;3.57;3.30;;;;;25.40;100817.00;;;;2057961;28;20214;-57
2021/06/23 02:27:41;;;;;;;3.43;3.20;;;;;25.50;100827.00;;;;2061667;28;20219;-62
2021/06/23 02:28:41;;;;;;;3.33;3.13;;;;;25.50;100823.00;;;;2075240;28;20340;-57
2021/06/23 02:29:41;;;;;;;3.00;2.80;;;;;25.50;100827.00;;;;2068171;28;20306;-57
2021/06/23 02:30:42;;;;;;;3.00;2.80;;;;;25.50;100830.00;;;;2063625;28;20336;-60
2021/06/23 02:31:42;;;;;;;2.93;2.73;;;;;25.50;100828.00;;;;2061711;28;20774;-60
2021/06/23 02:32:43;;;;;;;3.03;2.83;;;;;25.50;100830.00;;;;2070266;28;20214;-56
2021/06/23 02:33:43;;;;;;;3.13;2.93;;;;;25.50;100827.00;;;;2065686;28;20254;-56
2021/06/23 02:34:47;;;;;;;3.30;3.07;;;;;25.50;100831.00;;;;2053572;28;20389;-57
2021/06/23 02:35:47;;;;;;;3.40;3.10;;;;;25.50;100834.00;;;;2062881;28;20330;-56
2021/06/23 02:36:47;;;;;;;3.20;3.00;;;;;25.50;100832.00;;;;2062454;28;20215;-57
2021/06/23 02:37:48;;;;;;;3.40;3.20;;;;;25.50;100836.00;;;;2058102;28;20210;-56
2021/06/23 02:38:48;;;;;;;3.00;2.80;;;;;25.50;100832.00;;;;2054208;28;20588;-61
2021/06/23 02:39:49;;;;;;;3.57;3.27;;;;;25.50;100839.00;;;;2050971;28;20290;-57
2021/06/23 02:40:49;;;;;;;3.20;3.00;;;;;25.50;100844.00;;;;2062061;28;20995;-62
2021/06/23 02:41:50;;;;;;;3.33;3.13;;;;;25.50;100839.00;;;;2085856;28;20244;-59
2021/06/23 02:42:50;;;;;;;3.30;3.07;;;;;25.40;100835.00;;;;2086690;28;20217;-60
2021/06/23 02:43:51;;;;;;;3.17;2.97;;;;;25.40;100844.00;;;;2071091;28;20218;-61
2021/06/23 02:44:52;;;;;;;3.37;3.17;;;;;25.40;100846.00;;;;2062120;28;20857;-57
2021/06/23 02:45:54;;;;;;;3.00;2.80;;;;;25.40;100846.00;;;;2062338;28;20462;-56
2021/06/23 02:46:54;;;;;;;3.25;3.05;;;;;25.50;100838.00;;;;2062152;28;20605;-57
2021/06/23 02:47:54;;;;;;;3.40;3.20;;;;;25.40;100845.00;;;;2062359;28;20226;-56
2021/06/23 02:48:55;;;;;;;3.10;2.90;;;;;25.50;100845.00;;;;2060904;28;20313;-59
2021/06/23 02:49:55;;;;;;;3.10;2.90;;;;;25.50;100839.00;;;;2054118;28;20219;-58
2021/06/23 02:51:03;;;;;;;2.80;2.60;;;;;25.40;100846.00;;;;2066437;28;20556;-57
2021/06/23 02:52:03;;;;;;;3.40;3.20;;;;;25.50;100852.00;;;;2075153;28;20217;-57
2021/06/23 02:53:04;;;;;;;3.47;3.27;;;;;25.50;100839.00;;;;2068943;28;20206;-64
2021/06/23 02:54:04;;;;;;;3.27;3.03;;;;;25.40;100838.00;;;;2080025;28;20210;-55
2021/06/23 02:55:05;;;;;;;3.20;2.90;;;;;25.40;100847.00;;;;2070051;28;20241;-57
2021/06/23 02:56:05;;;;;;;3.33;3.03;;;;;25.40;100849.00;;;;2062019;28;20638;-57
2021/06/23 02:57:06;;;;;;;3.50;3.23;;;;;25.40;100848.00;;;;2064294;28;20218;-58
2021/06/23 02:58:06;;;;;;;3.00;2.80;;;;;25.50;100846.00;;;;2069734;28;20272;-58
2021/06/23 02:59:07;;;;;;;3.00;2.70;;;;;25.50;100853.00;;;;2067254;28;20210;-56
2021/06/23 03:00:08;;;;;;;3.30;3.10;;;;;25.40;100853.00;;;;2062104;28;20702;-57
2021/06/23 03:01:11;;;;;;;3.20;2.90;;;;;25.40;100839.00;;;;2069577;28;20206;-57
2021/06/23 03:02:12;;;;;;;2.90;2.70;;;;;25.40;100848.00;;;;2064552;28;20219;-57
2021/06/23 03:03:12;;;;;;;3.10;2.90;;;;;25.40;100847.00;;;;2062850;28;20622;-58
2021/06/23 03:04:12;;;;;;;3.00;2.80;;;;;25.40;100852.00;;;;2064941;28;20684;-58
2021/06/23 03:05:13;;;;;;;2.50;2.40;;;;;25.40;100844.00;;;;2067751;28;20692;-58
2021/06/23 03:06:13;;;;;;;3.30;3.10;;;;;25.40;100849.00;;;;2062824;28;20326;-55
2021/06/23 03:07:13;;;;;;;3.33;3.13;;;;;25.50;100852.00;;;;2062733;28;20222;-57
2021/06/23 03:08:14;;;;;;;3.63;3.33;;;;;25.50;100855.00;;;;2064057;28;20631;-57
2021/06/23 03:09:14;;;;;;;2.77;2.60;;;;;25.40;100844.00;;;;2070822;28;20207;-59
2021/06/23 03:10:15;;;;;;;2.90;2.60;;;;;25.40;100845.00;;;;2066079;28;20260;-57
2021/06/23 03:11:15;;;;;;;2.90;2.70;;;;;25.40;100844.00;;;;2064769;28;20207;-57
2021/06/23 03:12:16;;;;;;;2.97;2.77;;;;;25.50;100849.00;;;;2066390;28;20684;-57
2021/06/23 03:13:16;;;;;;;3.20;2.90;;;;;25.50;100844.00;;;;2062838;28;20241;-57
2021/06/23 03:14:17;;;;;;;3.70;3.40;;;;;25.40;100848.00;;;;2062824;28;20708;-57
2021/06/23 03:15:17;;;;;;;3.23;3.03;;;;;25.40;100839.00;;;;2067841;28;20648;-57
2021/06/23 03:16:17;;;;;;;3.10;2.90;;;;;25.40;100844.00;;;;2070949;28;20560;-56
2021/06/23 03:17:18;;;;;;;3.00;2.80;;;;;25.40;100848.00;;;;2070764;28;21011;-57
2021/06/23 03:18:18;;;;;;;3.10;2.90;;;;;25.40;100855.00;;;;2063947;28;20766;-57
2021/06/23 03:19:18;;;;;;;3.13;2.93;;;;;25.40;100853.00;;;;2070567;28;20699;-57
2021/06/23 03:20:19;;;;;;;2.60;2.50;;;;;25.40;100851.00;;;;2070177;28;20293;-57
2021/06/23 03:21:19;;;;;;;3.10;2.90;;;;;25.40;100845.00;;;;2065801;28;20762;-58
2021/06/23 03:22:19;;;;;;;3.17;2.97;;;;;25.40;100855.00;;;;2064830;28;20211;-55
2021/06/23 03:23:20;;;;;;;2.87;2.67;;;;;25.40;100847.00;;;;2068181;28;20676;-57
2021/06/23 03:24:20;;;;;;;3.10;2.90;;;;;25.40;100850.00;;;;2065950;28;20284;-56
2021/06/23 03:25:21;;;;;;;3.00;2.80;;;;;25.40;100847.00;;;;2070855;28;20210;-56
2021/06/23 03:26:21;;;;;;;2.67;2.50;;;;;25.40;100848.00;;;;2071031;28;20234;-57
2021/06/23 03:27:21;;;;;;;3.63;3.33;;;;;25.40;100848.00;;;;2072083;28;20214;-57
2021/06/23 03:28:22;;;;;;;3.10;2.90;;;;;25.50;100845.00;;;;2071313;28;20218;-58
2021/06/23 03:29:22;;;;;;;2.80;2.60;;;;;25.40;100850.00;;;;2065822;28;20211;-57
2021/06/23 03:30:23;;;;;;;2.90;2.70;;;;;25.40;100847.00;;;;2067947;28;20692;-57
2021/06/23 03:31:24;;;;;;;3.13;2.92;;;;;25.40;100847.00;;;;2063027;28;20222;-58
2021/06/23 03:32:25;;;;;;;3.20;2.80;;;;;25.40;100851.00;;;;2064223;28;20229;-57
2021/06/23 03:33:25;;;;;;;3.17;2.87;;;;;25.50;100849.00;;;;2069254;28;20214;-57
2021/06/23 03:34:26;;;;;;;3.10;2.83;;;;;25.40;100849.00;;;;2072228;28;20697;-57
2021/06/23 03:35:26;;;;;;;3.00;2.80;;;;;25.40;100844.00;;;;2072235;28;20672;-58
2021/06/23 03:36:27;;;;;;;3.20;3.00;;;;;25.40;100854.00;;;;2072196;28;20468;-58
2021/06/23 03:37:27;;;;;;;3.13;2.93;;;;;25.40;100850.00;;;;2068444;28;20219;-57
2021/06/23 03:38:27;;;;;;;3.30;3.10;;;;;25.40;100849.00;;;;2063975;28;20211;-57
2021/06/23 03:39:28;;;;;;;3.23;3.03;;;;;25.40;100850.00;;;;2063912;28;20215;-57
2021/06/23 03:40:28;;;;;;;2.67;2.47;;;;;25.40;100851.00;;;;2069764;28;20977;-58
2021/06/23 03:41:28;;;;;;;2.90;2.70;;;;;25.40;100854.00;;;;2070408;28;20250;-58
2021/06/23 03:42:29;;;;;;;3.30;2.87;;;;;25.40;100856.00;;;;2065213;28;20290;-58
2021/06/23 03:43:29;;;;;;;3.27;3.07;;;;;25.40;100850.00;;;;2063980;28;20215;-57
2021/06/23 03:44:29;;;;;;;3.10;2.90;;;;;25.40;100853.00;;;;2072037;28;20222;-57
2021/06/23 03:45:30;;;;;;;3.13;2.93;;;;;25.40;100853.00;;;;2072105;28;20228;-58
2021/06/23 03:46:30;;;;;;;2.77;2.57;;;;;25.40;100854.00;;;;2072163;28;20206;-58
2021/06/23 03:47:30;;;;;;;2.80;2.60;;;;;25.40;100854.00;;;;2071759;28;20229;-59
2021/06/23 03:48:32;;;;;;;2.97;2.77;;;;;25.40;100862.00;;;;2065794;28;20218;-58
2021/06/23 03:49:32;;;;;;;3.03;2.83;;;;;25.40;100876.00;;;;2064054;28;20293;-57
2021/06/23 03:50:33;;;;;;;3.13;2.93;;;;;25.40;100867.00;;;;2071868;28;20230;-58
2021/06/23 03:51:34;;;;;;;2.97;2.78;;;;;25.40;100863.00;;;;2071394;28;20233;-58
2021/06/23 03:52:34;;;;;;;2.93;2.73;;;;;25.40;100864.00;;;;2070589;28;20214;-57
2021/06/23 03:53:34;;;;;;;3.00;2.80;;;;;25.40;100871.00;;;;2072119;28;20225;-58
2021/06/23 03:54:35;;;;;;;3.07;2.87;;;;;25.40;100863.00;;;;2071934;28;20675;-58
2021/06/23 03:55:35;;;;;;;3.63;3.33;;;;;25.40;100866.00;;;;2064699;28;20691;-57
2021/06/23 03:56:35;;;;;;;2.90;2.70;;;;;25.40;100865.00;;;;2063535;28;20677;-57
2021/06/23 03:57:36;;;;;;;2.97;2.70;;;;;25.40;100867.00;;;;2071190;28;20658;-58
2021/06/23 03:58:36;;;;;;;3.00;2.80;;;;;25.40;100863.00;;;;2071973;28;20237;-57
2021/06/23 03:59:36;;;;;;;2.87;2.67;;;;;25.40;100862.00;;;;2070011;28;20230;-58
2021/06/23 04:00:37;;;;;;;3.33;2.90;;;;;25.40;100855.00;;;;2068482;28;20219;-56
2021/06/23 04:01:37;;;;;;;3.20;3.00;;;;;25.40;100856.00;;;;2071208;28;20234;-57
2021/06/23 04:02:37;;;;;;;3.10;2.90;;;;;25.40;100858.00;;;;2064315;28;20230;-57
2021/06/23 04:03:38;;;;;;;2.70;2.50;;;;;25.40;100866.00;;;;2067659;28;20664;-58
2021/06/23 04:04:38;;;;;;;3.13;2.90;;;;;25.40;100865.00;;;;2063942;28;20684;-57
2021/06/23 04:05:39;;;;;;;3.20;3.00;;;;;25.40;100861.00;;;;2065884;28;20305;-58
2021/06/23 04:06:39;;;;;;;2.83;2.63;;;;;25.40;100862.00;;;;2071309;28;20225;-56
2021/06/23 04:07:39;;;;;;;2.57;2.43;;;;;25.20;100858.00;;;;2071162;28;20226;-57
2021/06/23 04:08:40;;;;;;;3.00;2.80;;;;;25.40;100868.00;;;;2064724;28;20219;-57
2021/06/23 04:09:41;;;;;;;3.33;3.03;;;;;25.40;100862.00;;;;2070063;28;20690;-64
2021/06/23 04:10:41;;;;;;;3.10;2.90;;;;;25.40;100865.00;;;;2063743;28;20746;-57
2021/06/23 04:11:42;;;;;;;2.90;2.70;;;;;25.40;100865.00;;;;2063165;28;20215;-56
2021/06/23 04:12:42;;;;;;;3.10;2.90;;;;;25.40;100862.00;;;;2063672;28;20253;-57
2021/06/23 04:13:42;;;;;;;3.03;2.83;;;;;25.40;100858.00;;;;2063785;28;20227;-57
2021/06/23 04:14:43;;;;;;;3.10;2.80;;;;;25.40;100862.00;;;;2067440;28;20292;-57
2021/06/23 04:15:43;;;;;;;3.20;3.00;;;;;25.40;100862.00;;;;2063979;28;20242;-56
2021/06/23 04:16:43;;;;;;;3.00;2.80;;;;;25.40;100860.00;;;;2068138;28;20223;-57
2021/06/23 04:17:44;;;;;;;2.90;2.70;;;;;25.40;100861.00;;;;2070461;28;20241;-57
2021/06/23 04:18:44;;;;;;;3.07;2.77;;;;;25.40;100876.00;;;;2069990;28;20221;-58
2021/06/23 04:19:45;;;;;;;3.17;2.97;;;;;25.40;100859.00;;;;2068980;28;20219;-58
2021/06/23 04:20:45;;;;;;;2.97;2.77;;;;;25.40;100861.00;;;;2064038;28;20219;-58
2021/06/23 04:21:45;;;;;;;3.10;2.80;;;;;25.40;100867.00;;;;2063427;28;20238;-57
2021/06/23 04:22:46;;;;;;;3.27;2.77;;;;;25.40;100870.00;;;;2067078;28;20219;-58
2021/06/23 04:23:46;;;;;;;2.60;2.40;;;;;25.40;100875.00;;;;2063879;28;20695;-57
2021/06/23 04:24:46;;;;;;;2.60;2.40;;;;;25.40;100866.00;;;;2066468;28;20238;-55
2021/06/23 04:25:47;;;;;;;3.50;3.30;;;;;25.40;100869.00;;;;2067787;28;20233;-57
2021/06/23 04:26:47;;;;;;;3.00;2.80;;;;;25.40;100874.00;;;;2071138;28;20218;-58
2021/06/23 04:27:47;;;;;;;3.20;2.90;;;;;25.40;100859.00;;;;2071260;28;20950;-57
2021/06/23 04:28:48;;;;;;;2.93;2.73;;;;;25.40;100866.00;;;;2062832;28;20768;-57
2021/06/23 04:29:48;;;;;;;3.00;2.80;;;;;25.40;100867.00;;;;2066913;28;20309;-58
2021/06/23 04:30:49;;;;;;;3.20;2.90;;;;;25.40;100871.00;;;;2064978;28;20223;-57
2021/06/23 04:31:49;;;;;;;3.47;3.17;;;;;25.40;100862.00;;;;2066303;28;20257;-57
2021/06/23 04:32:49;;;;;;;2.77;2.57;;;;;25.40;100866.00;;;;2067764;28;20210;-58
2021/06/23 04:33:50;;;;;;;2.90;2.70;;;;;25.40;100865.00;;;;2071401;28;20692;-58
2021/06/23 04:34:50;;;;;;;3.00;2.80;;;;;25.40;100871.00;;;;2063243;28;20703;-58
2021/06/23 04:35:51;;;;;;;2.80;2.60;;;;;25.40;100865.00;;;;2063267;28;20361;-58
2021/06/23 04:36:51;;;;;;;3.03;2.83;;;;;25.40;100870.00;;;;2063346;28;20234;-58
2021/06/23 04:37:52;;;;;;;2.53;2.33;;;;;25.40;100872.00;;;;2062712;28;20707;-58
2021/06/23 04:38:52;;;;;;;3.03;2.73;;;;;25.40;100863.00;;;;2065732;28;20218;-58
2021/06/23 04:39:52;;;;;;;2.77;2.57;;;;;25.40;100871.00;;;;2067385;28;20222;-58
2021/06/23 04:40:53;;;;;;;3.33;3.00;;;;;25.40;100869.00;;;;2070670;28;20313;-58
2021/06/23 04:41:53;;;;;;;2.93;2.73;;;;;25.40;100867.00;;;;2070374;28;20214;-57
2021/06/23 04:42:53;;;;;;;3.50;3.20;;;;;25.40;100864.00;;;;2071116;28;20796;-57
2021/06/23 04:43:54;;;;;;;2.80;2.60;;;;;25.40;100863.00;;;;2071366;28;20223;-57
2021/06/23 04:44:54;;;;;;;2.73;2.53;;;;;25.40;100863.00;;;;2071013;28;20214;-58
2021/06/23 04:45:55;;;;;;;2.77;2.57;;;;;25.40;100858.00;;;;2071271;28;20222;-57
2021/06/23 04:46:55;;;;;;;2.90;2.70;;;;;25.40;100861.00;;;;2067386;28;20215;-57
2021/06/23 04:47:55;;;;;;;2.73;2.53;;;;;25.40;100864.00;;;;2070107;28;20214;-57
2021/06/23 04:48:56;;;;;;;2.93;2.73;;;;;25.40;100864.00;;;;2064188;28;20210;-57
2021/06/23 04:49:56;;;;;;;3.10;2.90;;;;;25.40;100858.00;;;;2064481;28;20286;-58
2021/06/23 04:50:56;;;;;;;2.53;2.43;;;;;25.40;100857.00;;;;2063692;28;20210;-59
2021/06/23 04:51:57;;;;;;;2.93;2.73;;;;;25.40;100854.00;;;;2062751;28;20388;-57
2021/06/23 04:52:57;;;;;;;3.27;3.07;;;;;25.40;100862.00;;;;2067379;28;20794;-58
2021/06/23 04:53:57;;;;;;;3.13;2.93;;;;;25.40;100861.00;;;;2071639;28;20206;-57
2021/06/23 04:54:58;;;;;;;3.10;2.87;;;;;25.40;100864.00;;;;2070150;28;20207;-57
2021/06/23 04:55:59;;;;;;;3.00;2.80;;;;;25.40;100864.00;;;;2066279;28;20269;-59
2021/06/23 04:56:59;;;;;;;2.83;2.63;;;;;25.40;100861.00;;;;2068600;28;20213;-58
2021/06/23 04:58:00;;;;;;;2.73;2.53;;;;;25.40;100860.00;;;;2063733;28;20207;-58
2021/06/23 04:59:00;;;;;;;2.80;2.60;;;;;25.40;100874.00;;;;2063292;28;20935;-58
2021/06/23 05:00:01;;;;;;;3.00;2.80;;;;;25.40;100866.00;;;;2063481;28;20289;-58
2021/06/23 05:01:01;;;;;;;2.80;2.60;;;;;25.40;100866.00;;;;2062849;28;20211;-58
2021/06/23 05:02:02;;;;;;;3.10;2.90;;;;;25.40;100862.00;;;;2068992;28;20484;-57
2021/06/23 05:03:02;;;;;;;2.67;2.47;;;;;25.40;100864.00;;;;2071424;28;20206;-57